createdAt,value
2018-02-06T00:00:05.713Z,4.11
2018-02-06T00:02:33.286Z,3.93
2018-02-06T00:05:00.923Z,3.85
2018-02-06T00:07:28.566Z,3.78
2018-02-06T00:09:56.195Z,3.58
2018-02-06T00:12:23.785Z,3.46
2018-02-06T00:14:51.336Z,3.37
2018-02-06T00:17:18.959Z,3.28
2018-02-06T00:19:46.587Z,3.11
2018-02-06T00:22:15.119Z,3.01
2018-02-06T00:24:42.676Z,2.86
2018-02-06T00:27:10.242Z,2.78
2018-02-06T00:29:37.818Z,2.67
2018-02-06T00:32:05.382Z,2.66
2018-02-06T00:34:32.998Z,2.62
2018-02-06T00:37:00.637Z,2.62
2018-02-06T00:39:28.213Z,2.56
2018-02-06T00:41:55.846Z,2.57
2018-02-06T00:44:23.473Z,2.61
2018-02-06T00:46:51.110Z,2.59
2018-02-06T00:49:18.737Z,2.57
2018-02-06T00:51:46.427Z,2.59
2018-02-06T00:54:14.055Z,2.58
2018-02-06T00:56:41.626Z,2.55
2018-02-06T00:59:09.211Z,2.53
2018-02-06T01:01:36.778Z,2.51
2018-02-06T01:04:04.445Z,2.47
2018-02-06T01:06:32.014Z,2.46
2018-02-06T01:08:59.635Z,2.43
2018-02-06T01:11:27.272Z,2.36
2018-02-06T01:13:54.899Z,2.31
2018-02-06T01:16:22.478Z,2.24
2018-02-06T01:18:50.112Z,2.21
2018-02-06T01:21:17.782Z,2.10
2018-02-06T01:23:45.357Z,1.96
2018-02-06T01:26:12.962Z,1.87
2018-02-06T01:28:40.549Z,1.75
2018-02-06T01:31:08.182Z,1.64
2018-02-06T01:33:35.823Z,1.54
2018-02-06T01:36:03.459Z,1.42
2018-02-06T01:38:31.084Z,1.37
2018-02-06T01:40:58.706Z,1.27
2018-02-06T01:43:26.279Z,1.20
2018-02-06T01:45:53.881Z,1.08
2018-02-06T01:48:21.475Z,1.03
2018-02-06T01:50:49.121Z,0.96
2018-02-06T01:53:16.690Z,1.01
2018-02-06T01:55:44.305Z,0.95
2018-02-06T01:58:11.881Z,0.91
2018-02-06T02:00:39.528Z,0.91
2018-02-06T02:03:07.159Z,1.01
2018-02-06T02:05:34.740Z,1.08
2018-02-06T02:08:02.322Z,1.22
2018-02-06T02:10:29.950Z,1.34
2018-02-06T02:12:57.570Z,1.31
2018-02-06T02:15:25.144Z,1.40
2018-02-06T02:17:52.714Z,1.39
2018-02-06T02:20:20.290Z,1.43
2018-02-06T02:22:47.874Z,1.48
2018-02-06T02:25:15.517Z,1.49
2018-02-06T02:27:43.148Z,1.44
2018-02-06T02:30:10.786Z,1.44
2018-02-06T02:32:38.350Z,1.42
2018-02-06T02:35:05.972Z,1.40
2018-02-06T02:37:33.555Z,1.37
2018-02-06T02:40:01.129Z,1.31
2018-02-06T04:40:31.550Z,1.64
2018-02-06T04:42:59.137Z,1.69
2018-02-06T04:45:26.843Z,1.75
2018-02-06T04:47:54.425Z,1.74
2018-02-06T04:50:22.062Z,1.71
2018-02-06T04:52:49.673Z,1.72
2018-02-06T04:55:17.294Z,1.74
2018-02-06T04:57:44.853Z,1.78
2018-02-06T05:00:12.423Z,1.87
2018-02-06T05:02:39.990Z,1.96
2018-02-06T05:05:07.665Z,2.04
2018-02-06T05:07:35.220Z,2.09
2018-02-06T05:10:03.786Z,2.17
2018-02-06T05:12:31.353Z,2.24
2018-02-06T05:14:58.980Z,2.28
2018-02-06T05:17:26.620Z,2.31
2018-02-06T05:19:54.241Z,2.37
2018-02-06T05:22:21.809Z,2.41
2018-02-06T05:24:49.359Z,2.48
2018-02-06T05:27:17.003Z,2.48
2018-02-06T05:29:44.569Z,2.48
2018-02-06T05:32:12.195Z,2.47
2018-02-06T05:34:39.827Z,2.53
2018-02-06T05:37:07.457Z,2.57
2018-02-06T05:39:35.033Z,2.55
2018-02-06T05:42:02.575Z,2.59
2018-02-06T05:44:30.194Z,2.61
2018-02-06T05:46:57.835Z,2.59
2018-02-06T05:49:25.488Z,2.60
2018-02-06T05:51:53.058Z,2.66
2018-02-06T05:54:20.630Z,2.71
2018-02-06T05:56:48.210Z,2.79
2018-02-06T05:59:15.787Z,2.89
2018-02-06T06:01:43.417Z,3.03
2018-02-06T06:04:10.997Z,3.16
2018-02-06T06:06:38.576Z,3.19
2018-02-06T06:09:06.172Z,3.10
2018-02-06T06:11:33.749Z,3.13
2018-02-06T06:14:01.395Z,3.24
2018-02-06T06:16:29.248Z,3.24
2018-02-06T06:18:56.914Z,3.31
2018-02-06T06:21:24.548Z,3.45
2018-02-06T06:23:52.131Z,3.56
2018-02-06T06:26:19.770Z,3.57
2018-02-06T06:28:47.399Z,3.56
2018-02-06T06:31:14.981Z,3.64
2018-02-06T06:33:42.558Z,3.72
2018-02-06T06:36:10.239Z,3.71
2018-02-06T06:38:37.822Z,3.79
2018-02-06T06:41:05.428Z,3.84
2018-02-06T06:43:33.086Z,3.78
2018-02-06T06:46:00.678Z,3.80
2018-02-06T06:48:28.301Z,3.90
2018-02-06T06:50:55.861Z,4.03
2018-02-06T06:53:23.548Z,4.02
2018-02-06T06:55:51.175Z,3.99
2018-02-06T06:58:18.802Z,4.08
2018-02-06T07:00:46.387Z,4.19
2018-02-06T07:03:13.944Z,4.32
2018-02-06T07:05:41.581Z,4.44
2018-02-06T07:08:09.212Z,4.47
2018-02-06T07:10:36.780Z,4.54
2018-02-06T07:13:04.358Z,4.73
2018-02-06T07:15:31.986Z,5.08
2018-02-06T07:17:59.641Z,5.50
2018-02-06T07:20:27.255Z,5.80
2018-02-06T07:22:54.886Z,6.00
2018-02-06T07:25:22.515Z,6.10
2018-02-06T07:27:50.154Z,6.14
2018-02-06T07:30:17.811Z,6.19
2018-02-06T07:32:45.386Z,6.30
2018-02-06T07:35:12.968Z,6.41
2018-02-06T07:37:40.543Z,6.35
2018-02-06T07:40:08.170Z,6.44
2018-02-06T07:42:35.789Z,6.46
2018-02-06T07:45:03.354Z,6.54
2018-02-06T07:47:30.990Z,6.45
2018-02-06T07:49:58.562Z,6.52
2018-02-06T07:52:26.139Z,6.63
2018-02-06T07:54:53.704Z,6.63
2018-02-06T07:57:21.303Z,6.61
2018-02-06T07:59:48.930Z,6.64
2018-02-06T08:02:16.560Z,6.67
2018-02-06T08:04:44.133Z,6.89
2018-02-06T08:07:11.694Z,7.12
2018-02-06T08:09:39.322Z,7.01
2018-02-06T08:12:06.938Z,7.25
2018-02-06T08:14:34.558Z,7.42
2018-02-06T08:17:02.183Z,7.68
2018-02-06T08:19:29.784Z,7.85
2018-02-06T08:21:57.341Z,7.96
2018-02-06T08:24:24.904Z,7.90
2018-02-06T08:26:52.534Z,7.86
2018-02-06T08:29:20.095Z,7.92
2018-02-06T08:31:47.792Z,7.83
2018-02-06T08:34:15.353Z,7.85
2018-02-06T08:36:43.032Z,7.97
2018-02-06T08:39:10.594Z,7.96
2018-02-06T08:41:38.234Z,7.98
2018-02-06T08:44:05.862Z,8.13
2018-02-06T08:46:33.431Z,8.30
2018-02-06T08:49:01.004Z,8.47
2018-02-06T08:51:28.586Z,8.45
2018-02-06T08:53:56.190Z,8.24
2018-02-06T08:56:23.803Z,8.35
2018-02-06T08:58:51.361Z,8.49
2018-02-06T09:01:18.986Z,8.57
2018-02-06T09:03:46.559Z,8.85
2018-02-06T09:06:14.191Z,9.04
2018-02-06T09:08:41.806Z,9.25
2018-02-06T09:11:09.373Z,9.51
2018-02-06T09:13:36.938Z,9.92
2018-02-06T09:16:04.593Z,10.17
2018-02-06T09:18:32.223Z,10.53
2018-02-06T09:20:59.866Z,10.59
2018-02-06T09:23:27.663Z,10.61
2018-02-06T09:25:55.289Z,10.49
2018-02-06T09:28:22.888Z,10.70
2018-02-06T09:30:50.460Z,10.77
2018-02-06T09:33:18.050Z,10.77
2018-02-06T09:35:45.632Z,10.87
2018-02-06T09:38:13.239Z,11.06
2018-02-06T09:40:40.867Z,11.37
2018-02-06T09:43:08.504Z,11.98
2018-02-06T09:45:36.089Z,12.05
2018-02-06T09:48:03.672Z,12.69
2018-02-06T09:50:31.324Z,13.21
2018-02-06T09:52:58.879Z,13.43
2018-02-06T09:55:26.459Z,13.83
2018-02-06T09:57:54.108Z,13.93
2018-02-06T10:00:21.799Z,13.96
2018-02-06T10:02:49.384Z,14.13
2018-02-06T10:05:16.965Z,14.23
2018-02-06T10:07:44.823Z,14.48
2018-02-06T10:10:12.458Z,14.74
2018-02-06T10:12:40.101Z,14.54
2018-02-06T10:15:07.676Z,14.91
2018-02-06T10:17:35.304Z,15.06
2018-02-06T10:20:02.939Z,14.70
2018-02-06T10:22:30.529Z,14.72
2018-02-06T10:24:58.359Z,14.94
2018-02-06T10:27:25.994Z,14.85
2018-02-06T10:29:53.648Z,15.13
2018-02-06T10:32:21.277Z,15.03
2018-02-06T10:34:48.970Z,16.18
2018-02-06T10:37:16.616Z,16.11
2018-02-06T10:39:44.191Z,16.39
2018-02-06T10:42:11.777Z,16.15
2018-02-06T10:44:39.361Z,16.53
2018-02-06T10:47:06.946Z,16.74
2018-02-06T10:49:34.528Z,17.11
2018-02-06T10:52:02.171Z,17.92
2018-02-06T10:54:29.758Z,17.85
2018-02-06T10:56:57.334Z,17.90
2018-02-06T10:59:24.921Z,17.51
2018-02-06T11:01:52.506Z,17.14
2018-02-06T11:04:20.141Z,17.04
2018-02-06T11:06:47.715Z,17.31
2018-02-06T11:09:15.339Z,17.56
2018-02-06T11:11:42.928Z,17.76
2018-02-06T11:14:10.561Z,17.75
2018-02-06T11:16:38.403Z,17.77
2018-02-06T11:19:06.056Z,17.34
2018-02-06T11:21:35.180Z,17.81
2018-02-06T11:24:02.771Z,18.61
2018-02-06T11:26:30.419Z,19.65
2018-02-06T11:28:58.050Z,20.76
2018-02-06T11:31:25.633Z,21.06
2018-02-06T11:33:53.222Z,21.54
2018-02-06T11:36:20.859Z,21.23
2018-02-06T11:38:48.437Z,21.06
2018-02-06T11:41:16.010Z,21.38
2018-02-06T11:43:43.658Z,21.32
2018-02-06T11:46:11.288Z,21.38
2018-02-06T11:48:38.868Z,21.30
2018-02-06T11:51:06.501Z,21.85
2018-02-06T11:53:34.136Z,22.13
2018-02-06T11:56:01.721Z,21.62
2018-02-06T11:58:29.298Z,21.33
2018-02-06T12:00:56.936Z,21.44
2018-02-06T12:03:24.706Z,21.34
2018-02-06T12:05:52.306Z,20.30
2018-02-06T12:08:19.944Z,19.12
2018-02-06T12:10:47.555Z,17.88
2018-02-06T12:13:15.405Z,17.19
2018-02-06T12:15:43.002Z,16.15
2018-02-06T12:18:10.751Z,15.61
2018-02-06T12:20:38.328Z,15.28
2018-02-06T12:23:05.959Z,14.99
2018-02-06T12:25:33.599Z,14.75
2018-02-06T12:28:01.292Z,14.50
2018-02-06T12:30:28.881Z,14.08
2018-02-06T12:32:56.454Z,13.91
2018-02-06T12:35:24.077Z,13.76
2018-02-06T12:37:51.747Z,13.44
2018-02-06T12:40:19.406Z,13.13
2018-02-06T12:42:46.958Z,12.98
2018-02-06T12:45:14.525Z,12.88
2018-02-06T12:47:42.158Z,12.89
2018-02-06T12:50:09.726Z,12.88
2018-02-06T12:52:37.395Z,12.89
2018-02-06T12:55:05.043Z,12.82
2018-02-06T12:57:32.670Z,12.82
2018-02-06T13:00:00.306Z,12.84
2018-02-06T13:02:27.878Z,12.77
2018-02-06T13:04:55.522Z,12.75
2018-02-06T13:07:23.086Z,12.66
2018-02-06T13:09:50.791Z,12.64
2018-02-06T13:12:18.343Z,12.57
2018-02-06T13:14:45.913Z,12.57
2018-02-06T13:17:13.546Z,12.56
2018-02-06T13:19:41.117Z,12.52
2018-02-06T13:22:08.694Z,12.53
2018-02-06T13:24:36.331Z,12.57
2018-02-06T13:27:03.978Z,12.49
2018-02-06T13:29:31.622Z,12.47
2018-02-06T13:31:59.256Z,12.38
2018-02-06T13:34:26.903Z,12.35
2018-02-06T13:36:54.482Z,12.27
2018-02-06T13:39:22.062Z,12.18
2018-02-06T13:41:49.621Z,12.13
2018-02-06T13:44:17.243Z,12.07
2018-02-06T13:46:44.879Z,12.06
2018-02-06T13:49:12.518Z,12.10
2018-02-06T13:51:40.107Z,12.12
2018-02-06T13:54:07.719Z,12.14
2018-02-06T13:56:35.489Z,12.16
2018-02-06T13:59:03.066Z,12.24
2018-02-06T14:01:30.648Z,12.22
2018-02-06T14:03:58.233Z,12.16
2018-02-06T14:06:25.824Z,12.15
2018-02-06T14:08:53.425Z,12.13
2018-02-06T14:11:21.021Z,12.10
2018-02-06T14:13:48.654Z,12.06
2018-02-06T14:16:16.313Z,11.97
2018-02-06T14:18:43.900Z,11.89
2018-02-06T14:21:11.503Z,11.85
2018-02-06T14:23:39.143Z,11.79
2018-02-06T14:26:06.743Z,11.74
2018-02-06T14:28:34.312Z,11.64
2018-02-06T14:31:01.950Z,11.63
2018-02-06T14:33:29.582Z,11.61
2018-02-06T14:35:57.245Z,11.51
2018-02-06T14:38:24.936Z,11.44
2018-02-06T14:40:52.514Z,11.34
2018-02-06T14:43:20.094Z,11.23
2018-02-06T14:45:48.221Z,11.21
2018-02-06T14:48:15.920Z,11.08
2018-02-06T14:50:43.567Z,10.99
2018-02-06T14:53:11.205Z,10.93
2018-02-06T14:55:39.690Z,10.87
2018-02-06T14:58:07.465Z,10.74
2018-02-06T15:00:35.114Z,10.60
2018-02-06T15:03:02.694Z,10.54
2018-02-06T15:05:30.274Z,10.51
2018-02-06T15:07:57.862Z,10.42
2018-02-06T15:10:25.419Z,10.35
2018-02-06T15:12:53.048Z,10.22
2018-02-06T15:15:20.692Z,10.19
2018-02-06T15:19:49.746Z,10.03
2018-02-06T15:22:17.318Z,9.93
2018-02-06T15:24:44.890Z,9.84
2018-02-06T15:27:12.579Z,9.76
2018-02-06T15:31:20.927Z,9.54
2018-02-06T15:33:48.511Z,9.43
2018-02-06T15:36:16.083Z,9.28
2018-02-06T15:38:43.710Z,9.13
2018-02-06T15:41:11.282Z,8.99
2018-02-06T15:43:38.922Z,8.88
2018-02-06T15:46:06.498Z,8.86
2018-02-06T15:48:34.067Z,8.73
2018-02-06T15:51:01.700Z,8.68
2018-02-06T15:53:29.270Z,8.57
2018-02-06T15:55:56.954Z,8.45
2018-02-06T15:58:24.617Z,8.32
2018-02-06T16:03:52.488Z,8.02
2018-02-06T16:06:20.061Z,8.03
2018-02-06T16:08:47.649Z,8.02
2018-02-06T16:11:15.278Z,8.00
2018-02-06T16:13:42.910Z,7.96
2018-02-06T16:16:10.534Z,7.97
2018-02-06T16:18:38.106Z,7.93
2018-02-06T16:21:05.687Z,7.94
2018-02-06T16:23:33.268Z,7.89
2018-02-06T16:26:00.906Z,7.94
2018-02-06T16:28:28.526Z,7.96
2018-02-06T16:30:56.101Z,8.06
2018-02-06T16:33:23.670Z,8.02
2018-02-06T16:35:52.151Z,8.07
2018-02-06T16:38:19.773Z,8.09
2018-02-06T16:40:47.886Z,8.16
2018-02-06T16:43:15.456Z,8.14
2018-02-06T16:45:43.091Z,8.24
2018-02-06T16:48:10.714Z,8.35
2018-02-06T16:50:38.294Z,8.39
2018-02-06T16:53:05.873Z,8.44
2018-02-06T16:55:34.146Z,8.46
2018-02-06T16:58:01.717Z,8.42
2018-02-06T17:00:29.277Z,8.40
2018-02-06T17:02:56.926Z,8.46
2018-02-06T17:05:24.553Z,8.36
2018-02-06T17:07:52.254Z,8.39
2018-02-06T17:10:19.911Z,8.36
2018-02-06T17:12:47.493Z,8.23
2018-02-06T17:15:15.074Z,8.28
2018-02-06T17:17:42.652Z,8.32
2018-02-06T17:20:10.299Z,8.30
2018-02-06T17:22:37.970Z,8.23
2018-02-06T17:25:05.605Z,8.25
2018-02-06T17:27:33.230Z,8.20
2018-02-06T17:30:00.800Z,8.19
2018-02-06T17:32:28.387Z,8.20
2018-02-06T17:34:55.962Z,8.03
2018-02-06T17:37:23.533Z,7.82
2018-02-06T17:39:51.104Z,7.64
2018-02-06T17:42:18.734Z,7.53
2018-02-06T17:44:46.813Z,7.39
2018-02-06T17:47:14.382Z,7.27
2018-02-06T17:49:43.031Z,7.03
2018-02-06T17:52:10.668Z,6.89
2018-02-06T17:54:38.253Z,6.73
2018-02-06T17:57:05.822Z,6.69
2018-02-06T17:59:33.465Z,6.67
2018-02-06T18:02:01.096Z,6.55
2018-02-06T18:04:28.697Z,6.53
2018-02-06T18:06:57.535Z,6.45
2018-02-06T18:09:25.111Z,6.45
2018-02-06T18:11:52.697Z,6.40
2018-02-06T18:14:20.915Z,6.27
2018-02-06T18:16:48.710Z,6.15
2018-02-06T18:19:16.277Z,6.02
2018-02-06T18:21:43.856Z,5.85
2018-02-06T18:24:11.499Z,5.74
2018-02-06T18:26:39.066Z,5.70
2018-02-06T18:29:07.471Z,5.68
2018-02-06T18:31:35.135Z,5.64
2018-02-06T18:34:02.833Z,5.69
2018-02-06T18:36:30.449Z,5.64
2018-02-06T18:38:58.091Z,5.62
2018-02-06T18:41:25.691Z,5.68
2018-02-06T18:43:53.264Z,5.79
2018-02-06T18:46:20.855Z,5.80
2018-02-06T18:48:48.430Z,5.74
2018-02-06T18:51:16.053Z,5.76
2018-02-06T18:53:43.630Z,5.71
2018-02-06T18:56:11.201Z,5.74
2018-02-06T18:58:38.848Z,5.77
2018-02-06T19:01:06.429Z,5.72
2018-02-06T19:03:34.070Z,5.74
2018-02-06T19:06:01.703Z,5.76
2018-02-06T19:08:29.334Z,5.74
2018-02-06T19:10:57.007Z,5.68
2018-02-06T19:16:06.385Z,5.74
2018-02-06T19:18:34.009Z,5.68
2018-02-06T19:21:01.678Z,5.64
2018-02-06T19:23:29.284Z,5.58
2018-02-06T19:25:56.882Z,5.56
2018-02-06T19:28:24.528Z,5.51
2018-02-06T19:30:52.158Z,5.50
2018-02-06T19:33:19.743Z,5.47
2018-02-06T19:35:47.324Z,5.44
2018-02-06T19:38:14.963Z,5.42
2018-02-06T19:40:42.538Z,5.44
2018-02-06T19:43:11.031Z,5.50
2018-02-06T19:45:38.609Z,5.41
2018-02-06T19:48:06.234Z,5.39
2018-02-06T19:50:33.855Z,5.41
2018-02-06T19:53:01.434Z,5.46
2018-02-06T19:55:29.603Z,5.43
2018-02-06T19:57:57.199Z,5.39
2018-02-06T20:00:24.773Z,5.33
2018-02-06T20:02:52.318Z,5.30
2018-02-06T20:05:19.954Z,5.19
2018-02-06T20:07:47.590Z,5.13
2018-02-06T20:10:15.214Z,5.11
2018-02-06T20:12:42.894Z,5.01
2018-02-06T20:15:10.463Z,4.98
2018-02-06T20:17:38.042Z,4.85
2018-02-06T20:20:05.682Z,4.78
2018-02-06T20:22:33.302Z,4.77
2018-02-06T20:25:00.892Z,4.85
2018-02-06T20:27:28.503Z,4.90
2018-02-06T20:29:56.134Z,4.89
2018-02-06T20:32:23.699Z,4.89
2018-02-06T20:34:51.256Z,4.96
2018-02-06T20:37:18.906Z,4.93
2018-02-06T20:39:46.531Z,4.93
2018-02-06T20:42:14.108Z,4.92
2018-02-06T20:44:41.736Z,4.90
2018-02-06T20:47:09.373Z,4.88
2018-02-06T20:49:36.946Z,4.79
2018-02-06T20:52:04.591Z,4.74
2018-02-06T20:54:32.153Z,4.71
2018-02-06T20:56:59.730Z,4.71
2018-02-06T20:59:27.326Z,4.68
2018-02-06T21:01:54.952Z,4.67
2018-02-06T21:04:22.595Z,4.64
2018-02-06T21:06:50.162Z,4.61
2018-02-06T21:09:17.750Z,4.59
2018-02-06T21:11:45.398Z,4.61
2018-02-06T21:14:12.971Z,4.69
2018-02-06T21:16:40.670Z,4.74
2018-02-06T21:19:08.238Z,4.73
2018-02-06T21:21:35.814Z,4.69
2018-02-06T21:24:03.452Z,4.74
2018-02-06T21:26:31.014Z,4.79
2018-02-06T21:28:58.595Z,4.85
2018-02-06T21:31:26.193Z,4.93
2018-02-06T21:33:53.742Z,4.94
2018-02-06T21:36:21.305Z,4.96
2018-02-06T21:38:48.880Z,4.89
2018-02-06T21:41:16.449Z,4.80
2018-02-06T21:43:44.013Z,4.81
2018-02-06T21:46:11.588Z,4.80
2018-02-06T21:48:39.167Z,4.87
2018-02-06T21:51:06.745Z,4.95
2018-02-06T21:53:34.318Z,4.96
2018-02-06T21:56:01.879Z,5.02
2018-02-06T21:58:29.450Z,5.05
2018-02-06T22:00:57.037Z,5.08
2018-02-06T22:03:24.612Z,5.10
2018-02-06T22:05:52.231Z,5.03
2018-02-06T22:08:19.812Z,4.94
2018-02-06T22:10:47.389Z,4.90
2018-02-06T22:13:14.959Z,4.76
2018-02-06T22:15:42.638Z,4.70
2018-02-06T22:18:10.198Z,4.64
2018-02-06T22:20:37.762Z,4.54
2018-02-06T22:23:05.404Z,4.38
2018-02-06T22:25:33.029Z,4.32
2018-02-06T22:28:00.706Z,4.32
2018-02-06T22:30:28.336Z,4.28
2018-02-06T22:32:55.910Z,4.29
2018-02-06T22:35:23.486Z,4.23
2018-02-06T22:37:51.060Z,4.17
2018-02-06T22:40:18.682Z,4.10
2018-02-06T22:42:46.246Z,4.10
2018-02-06T22:45:13.818Z,4.06
2018-02-06T22:47:41.449Z,3.99
2018-02-06T22:50:09.071Z,4.03
2018-02-06T22:52:36.709Z,4.11
2018-02-06T22:55:04.340Z,4.13
2018-02-06T22:57:31.897Z,4.14
2018-02-06T22:59:59.476Z,4.12
2018-02-06T23:02:27.036Z,4.22
2018-02-06T23:04:54.651Z,4.23
2018-02-06T23:07:22.287Z,4.35
2018-02-06T23:09:49.850Z,4.44
2018-02-06T23:12:17.422Z,4.54
2018-02-06T23:14:45.034Z,4.69
2018-02-06T23:17:12.722Z,5.05
2018-02-06T23:19:40.263Z,5.43
2018-02-06T23:22:07.883Z,5.60
2018-02-06T23:24:35.463Z,5.71
2018-02-06T23:27:03.025Z,5.74
2018-02-06T23:29:30.699Z,5.71
2018-02-06T23:31:58.258Z,5.94
2018-02-06T23:34:25.878Z,6.09
2018-02-06T23:36:53.527Z,6.02
2018-02-06T23:39:21.107Z,5.85
2018-02-06T23:41:48.746Z,5.66
2018-02-06T23:44:16.288Z,5.62
2018-02-06T23:46:43.835Z,5.44
2018-02-06T23:49:11.404Z,5.28
2018-02-06T23:51:39.030Z,5.18
2018-02-06T23:54:06.675Z,5.12
2018-02-06T23:56:34.242Z,5.00
2018-02-06T23:59:01.870Z,4.82
